createdAt,value
2017-12-24T00:01:33.124Z,95.60
2017-12-24T00:04:01.503Z,95.60
2017-12-24T00:06:30.035Z,95.20
2017-12-24T00:08:57.592Z,95.60
2017-12-24T00:11:26.036Z,95.70
2017-12-24T00:13:54.332Z,95.50
2017-12-24T00:16:22.672Z,95.40
2017-12-24T00:18:51.354Z,95.40
2017-12-24T00:21:19.844Z,95.50
2017-12-24T00:23:47.381Z,95.80
2017-12-24T00:26:15.735Z,96.60
2017-12-24T00:28:43.315Z,96.60
2017-12-24T00:31:10.848Z,97.10
2017-12-24T00:33:38.400Z,97.40
2017-12-24T00:36:07.329Z,97.80
2017-12-24T00:38:34.880Z,97.70
2017-12-24T00:41:02.463Z,97.60
2017-12-24T00:43:29.992Z,97.50
2017-12-24T00:45:58.156Z,96.70
2017-12-24T00:48:26.385Z,96.00
2017-12-24T00:50:55.524Z,95.70
2017-12-24T00:53:23.064Z,95.70
2017-12-24T00:55:51.404Z,95.70
2017-12-24T00:58:19.748Z,95.60
2017-12-24T01:00:48.144Z,95.50
2017-12-24T01:03:16.439Z,95.30
2017-12-24T01:05:45.207Z,95.70
2017-12-24T01:08:12.736Z,95.70
2017-12-24T01:10:40.313Z,96.00
2017-12-24T01:13:07.849Z,95.70
2017-12-24T01:15:36.192Z,97.00
2017-12-24T01:18:05.476Z,96.90
2017-12-24T01:20:33.928Z,96.60
2017-12-24T01:23:01.459Z,96.80
2017-12-24T01:25:29.037Z,96.70
2017-12-24T01:27:57.723Z,96.60
2017-12-24T01:30:25.307Z,95.80
2017-12-24T01:32:54.104Z,95.70
2017-12-24T01:35:21.700Z,96.60
2017-12-24T01:37:49.303Z,96.20
2017-12-24T01:40:17.343Z,96.10
2017-12-24T01:42:44.921Z,96.20
2017-12-24T01:45:12.447Z,96.90
2017-12-24T01:47:52.516Z,95.70
2017-12-24T01:50:20.812Z,95.50
2017-12-24T01:52:48.407Z,95.40
2017-12-24T01:55:16.787Z,95.80
2017-12-24T01:57:44.889Z,95.80
2017-12-24T02:00:12.416Z,95.90
2017-12-24T02:02:40.879Z,95.40
2017-12-24T02:05:08.415Z,95.40
2017-12-24T02:07:36.878Z,95.10
2017-12-24T02:10:04.420Z,95.00
2017-12-24T02:12:32.806Z,95.10
2017-12-24T02:15:01.180Z,94.70
2017-12-24T02:17:29.996Z,94.80
2017-12-24T02:19:57.535Z,95.10
2017-12-24T02:22:25.895Z,95.40
2017-12-24T02:24:53.443Z,95.50
2017-12-24T02:27:21.021Z,95.40
2017-12-24T02:29:48.551Z,95.60
2017-12-24T02:32:17.048Z,96.00
2017-12-24T02:34:45.224Z,96.30
2017-12-24T02:37:12.796Z,96.20
2017-12-24T02:39:43.131Z,95.60
2017-12-24T02:42:11.467Z,95.60
2017-12-24T02:44:39.878Z,95.50
2017-12-24T02:47:08.242Z,95.60
2017-12-24T02:49:36.623Z,95.90
2017-12-24T02:52:04.186Z,95.90
2017-12-24T02:54:31.759Z,96.00
2017-12-24T02:57:00.213Z,95.50
2017-12-24T02:59:29.016Z,95.60
2017-12-24T03:01:57.099Z,95.70
2017-12-24T03:04:24.663Z,95.90
2017-12-24T03:06:52.219Z,96.10
2017-12-24T03:09:19.779Z,96.40
2017-12-24T03:11:47.360Z,96.60
2017-12-24T03:14:15.825Z,96.60
2017-12-24T03:16:43.354Z,96.90
2017-12-24T03:19:10.931Z,97.20
2017-12-24T03:21:38.520Z,97.50
2017-12-24T03:24:06.811Z,96.30
2017-12-24T03:26:35.106Z,96.30
2017-12-24T03:29:03.444Z,96.10
2017-12-24T03:31:30.971Z,96.10
2017-12-24T03:33:59.852Z,95.90
2017-12-24T03:36:28.660Z,95.90
2017-12-24T03:38:56.923Z,96.30
2017-12-24T03:41:26.470Z,96.10
2017-12-24T03:43:54.847Z,95.70
2017-12-24T03:46:22.374Z,95.70
2017-12-24T03:48:49.948Z,95.70
2017-12-24T03:51:17.479Z,95.80
2017-12-24T03:53:45.804Z,95.40
2017-12-24T03:56:13.323Z,95.40
2017-12-24T03:58:41.695Z,95.50
2017-12-24T04:01:10.587Z,95.70
2017-12-24T04:03:39.004Z,95.90
2017-12-24T04:06:06.527Z,96.10
2017-12-24T04:08:34.964Z,96.30
2017-12-24T04:11:02.490Z,96.40
2017-12-24T04:13:30.062Z,96.50
2017-12-24T04:15:58.615Z,96.70
2017-12-24T04:18:26.197Z,96.70
2017-12-24T04:20:53.764Z,96.80
2017-12-24T04:23:21.359Z,97.00
2017-12-24T04:25:49.660Z,97.30
2017-12-24T04:28:17.991Z,97.40
2017-12-24T04:30:45.515Z,97.30
2017-12-24T04:33:14.831Z,97.50
2017-12-24T04:35:43.119Z,97.40
2017-12-24T04:38:12.439Z,97.10
2017-12-24T04:40:41.647Z,97.20
2017-12-24T04:43:10.558Z,97.10
2017-12-24T04:45:38.866Z,97.30
2017-12-24T04:48:06.455Z,97.20
2017-12-24T04:50:33.993Z,97.10
2017-12-24T04:53:02.326Z,96.60
2017-12-24T04:55:29.869Z,96.60
2017-12-24T04:57:58.417Z,96.80
2017-12-24T05:00:25.965Z,96.90
2017-12-24T05:02:53.535Z,96.50
2017-12-24T05:05:21.775Z,96.70
2017-12-24T05:07:50.110Z,96.80
2017-12-24T05:10:18.068Z,96.50
2017-12-24T05:12:46.392Z,96.10
2017-12-24T05:15:15.196Z,96.10
2017-12-24T05:17:42.763Z,96.50
2017-12-24T05:20:10.299Z,97.00
2017-12-24T05:22:38.806Z,97.00
2017-12-24T05:25:06.339Z,97.20
2017-12-24T05:27:33.915Z,96.80
2017-12-24T05:30:01.435Z,96.00
2017-12-24T05:32:29.000Z,95.90
2017-12-24T05:34:57.533Z,96.40
2017-12-24T05:37:25.684Z,96.50
2017-12-24T05:39:54.389Z,96.70
2017-12-24T05:42:21.955Z,96.10
2017-12-24T05:44:50.402Z,96.10
2017-12-24T05:47:17.975Z,96.30
2017-12-24T05:49:46.315Z,96.70
2017-12-24T05:52:14.828Z,97.30
2017-12-24T05:54:43.354Z,97.30
2017-12-24T05:57:11.659Z,97.30
2017-12-24T05:59:39.192Z,97.20
2017-12-24T06:02:06.763Z,96.60
2017-12-24T06:04:34.295Z,96.30
2017-12-24T06:07:02.631Z,96.60
2017-12-24T06:09:30.172Z,96.60
2017-12-24T06:11:57.732Z,97.00
2017-12-24T06:14:26.888Z,97.60
2017-12-24T06:16:54.448Z,97.60
2017-12-24T06:19:21.977Z,98.00
2017-12-24T06:21:51.253Z,97.60
2017-12-24T06:24:19.707Z,97.60
2017-12-24T06:26:47.795Z,98.00
2017-12-24T06:29:17.432Z,98.00
2017-12-24T06:31:44.967Z,98.20
2017-12-24T06:34:13.304Z,98.50
2017-12-24T06:36:40.823Z,98.50
2017-12-24T06:39:09.855Z,98.50
2017-12-24T06:41:38.240Z,98.80
2017-12-24T06:44:05.803Z,98.50
2017-12-24T06:46:35.050Z,98.30
2017-12-24T06:49:02.625Z,98.30
2017-12-24T06:51:30.160Z,98.20
2017-12-24T06:53:58.491Z,98.10
2017-12-24T06:56:26.017Z,98.00
2017-12-24T06:58:54.922Z,98.00
2017-12-24T07:01:24.080Z,97.90
2017-12-24T07:03:51.937Z,97.90
2017-12-24T07:06:19.459Z,98.00
2017-12-24T07:08:46.992Z,97.90
2017-12-24T07:11:15.497Z,98.20
2017-12-24T07:13:43.038Z,98.50
2017-12-24T07:16:11.464Z,98.70
2017-12-24T07:18:39.041Z,98.80
2017-12-24T07:21:07.208Z,98.90
2017-12-24T07:23:34.735Z,98.90
2017-12-24T07:26:02.858Z,98.70
2017-12-24T07:28:31.864Z,98.40
2017-12-24T07:30:59.432Z,98.40
2017-12-24T07:33:26.968Z,98.40
2017-12-24T07:35:56.343Z,98.40
2017-12-24T07:38:24.748Z,98.40
2017-12-24T07:40:52.318Z,98.20
2017-12-24T07:43:19.856Z,98.40
2017-12-24T07:45:47.428Z,98.60
2017-12-24T07:48:14.965Z,98.60
2017-12-24T07:50:42.536Z,98.60
2017-12-24T07:53:10.067Z,98.50
2017-12-24T07:55:40.139Z,98.20
2017-12-24T07:58:07.698Z,98.20
2017-12-24T08:00:35.310Z,98.20
2017-12-24T08:03:04.309Z,98.00
2017-12-24T08:05:33.323Z,97.70
2017-12-24T08:08:02.455Z,97.30
2017-12-24T08:10:30.561Z,97.00
2017-12-24T08:12:58.971Z,96.20
2017-12-24T08:15:26.535Z,96.20
2017-12-24T08:17:54.083Z,96.30
2017-12-24T08:20:22.484Z,96.60
2017-12-24T08:22:50.012Z,96.40
2017-12-24T08:25:18.347Z,96.20
2017-12-24T08:27:45.888Z,96.10
2017-12-24T08:30:15.164Z,95.90
2017-12-24T08:32:42.698Z,95.80
2017-12-24T08:35:10.281Z,95.70
2017-12-24T08:37:37.808Z,95.20
2017-12-24T08:40:06.303Z,94.50
2017-12-24T08:42:35.414Z,94.40
2017-12-24T08:45:04.512Z,94.10
2017-12-24T08:47:33.161Z,94.10
2017-12-24T08:50:00.705Z,93.60
2017-12-24T08:52:28.360Z,93.20
2017-12-24T08:54:55.891Z,92.50
2017-12-24T08:57:23.467Z,91.90
2017-12-24T08:59:51.655Z,92.10
2017-12-24T09:02:19.999Z,91.50
2017-12-24T09:04:49.216Z,90.50
2017-12-24T09:07:18.476Z,92.40
2017-12-24T09:09:46.028Z,92.40
2017-12-24T09:12:13.610Z,91.90
2017-12-24T09:14:41.189Z,91.10
2017-12-24T09:17:08.726Z,90.70
2017-12-24T09:19:37.607Z,91.00
2017-12-24T09:22:05.172Z,91.00
2017-12-24T09:24:32.745Z,91.60
2017-12-24T09:27:01.078Z,91.50
2017-12-24T09:29:28.653Z,90.20
2017-12-24T09:31:56.767Z,90.50
2017-12-24T09:34:25.160Z,90.20
2017-12-24T09:36:52.711Z,89.10
2017-12-24T09:39:21.144Z,89.10
2017-12-24T09:41:49.365Z,89.70
2017-12-24T09:44:18.546Z,88.90
2017-12-24T09:46:47.737Z,88.80
2017-12-24T09:49:16.299Z,88.30
2017-12-24T09:51:44.773Z,86.40
2017-12-24T09:54:13.112Z,87.70
2017-12-24T09:56:42.127Z,87.50
2017-12-24T09:59:09.704Z,87.30
2017-12-24T10:01:37.247Z,86.70
2017-12-24T10:04:04.826Z,87.50
2017-12-24T10:06:33.266Z,87.90
2017-12-24T10:09:00.889Z,87.50
2017-12-24T10:11:28.427Z,87.50
2017-12-24T10:13:56.775Z,86.10
2017-12-24T10:16:24.303Z,86.10
2017-12-24T10:18:52.835Z,85.90
2017-12-24T10:21:20.366Z,87.40
2017-12-24T10:23:48.695Z,87.30
2017-12-24T10:26:16.224Z,87.10
2017-12-24T10:28:45.552Z,89.20
2017-12-24T10:31:13.083Z,89.20
2017-12-24T10:33:40.652Z,89.30
2017-12-24T10:36:08.895Z,87.70
2017-12-24T10:38:37.387Z,88.20
2017-12-24T10:41:04.920Z,88.90
2017-12-24T10:43:33.124Z,88.60
2017-12-24T10:46:01.429Z,89.50
2017-12-24T10:48:29.012Z,89.30
2017-12-24T10:50:57.177Z,87.50
2017-12-24T10:53:26.503Z,88.40
2017-12-24T10:55:54.039Z,88.30
2017-12-24T10:58:22.531Z,88.20
2017-12-24T11:00:50.056Z,87.80
2017-12-24T11:03:19.011Z,88.10
2017-12-24T11:05:46.555Z,87.60
2017-12-24T11:08:14.898Z,87.90
2017-12-24T11:10:43.251Z,87.10
2017-12-24T11:13:11.876Z,87.10
2017-12-24T11:15:40.225Z,87.10
2017-12-24T11:18:08.186Z,87.10
2017-12-24T11:20:35.727Z,87.80
2017-12-24T11:23:04.064Z,87.60
2017-12-24T11:25:31.591Z,87.40
2017-12-24T11:28:00.794Z,87.80
2017-12-24T11:30:28.341Z,87.60
2017-12-24T11:32:55.981Z,87.90
2017-12-24T11:35:23.608Z,88.30
2017-12-24T11:37:52.120Z,87.60
2017-12-24T11:40:20.435Z,86.30
2017-12-24T11:42:48.974Z,86.30
2017-12-24T11:45:16.503Z,85.90
2017-12-24T11:47:44.051Z,85.80
2017-12-24T11:50:12.404Z,86.60
2017-12-24T11:52:39.943Z,86.60
2017-12-24T11:55:08.058Z,86.60
2017-12-24T11:57:35.673Z,87.30
2017-12-24T12:00:03.244Z,87.10
2017-12-24T12:02:31.542Z,85.20
2017-12-24T12:04:59.880Z,85.30
2017-12-24T12:07:27.429Z,85.30
2017-12-24T12:09:55.011Z,84.50
2017-12-24T12:12:23.343Z,85.10
2017-12-24T12:14:50.915Z,85.00
2017-12-24T12:17:18.447Z,83.80
2017-12-24T12:19:46.020Z,84.00
2017-12-24T12:22:14.463Z,84.90
2017-12-24T12:24:43.256Z,86.30
2017-12-24T12:27:11.472Z,87.60
2017-12-24T12:29:39.820Z,88.30
2017-12-24T12:32:07.370Z,88.10
2017-12-24T12:34:34.948Z,88.10
2017-12-24T12:37:02.486Z,87.60
2017-12-24T12:39:30.060Z,88.40
2017-12-24T12:41:57.656Z,87.40
2017-12-24T12:44:25.780Z,88.30
2017-12-24T12:46:53.863Z,88.70
2017-12-24T12:49:21.431Z,88.20
2017-12-24T12:51:48.972Z,88.10
2017-12-24T12:54:17.488Z,87.80
2017-12-24T12:56:45.085Z,87.60
2017-12-24T12:59:13.440Z,87.60
2017-12-24T13:01:41.808Z,87.60
2017-12-24T13:04:10.960Z,87.80
2017-12-24T13:06:38.543Z,87.70
2017-12-24T13:09:06.155Z,87.40
2017-12-24T13:11:33.692Z,86.50
2017-12-24T13:14:01.260Z,86.40
2017-12-24T13:16:29.756Z,86.60
2017-12-24T13:18:57.332Z,87.00
2017-12-24T13:21:26.008Z,87.20
2017-12-24T13:23:53.592Z,86.90
2017-12-24T13:26:21.165Z,87.50
2017-12-24T13:28:48.688Z,88.20
2017-12-24T13:31:16.268Z,87.80
2017-12-24T13:33:43.856Z,88.60
2017-12-24T13:36:11.432Z,88.80
2017-12-24T13:38:40.100Z,89.50
2017-12-24T13:41:07.681Z,89.10
2017-12-24T13:43:36.088Z,87.90
2017-12-24T13:46:03.676Z,88.20
2017-12-24T13:48:31.212Z,87.70
2017-12-24T13:50:59.574Z,88.10
2017-12-24T13:53:27.131Z,88.00
2017-12-24T13:55:54.702Z,88.70
2017-12-24T13:58:23.272Z,88.90
2017-12-24T14:00:51.646Z,88.50
2017-12-24T14:03:19.188Z,88.80
2017-12-24T14:05:47.572Z,88.70
2017-12-24T14:08:16.099Z,89.90
2017-12-24T14:10:44.459Z,89.50
2017-12-24T14:13:12.012Z,89.40
2017-12-24T14:15:39.587Z,88.30
2017-12-24T14:18:07.196Z,89.30
2017-12-24T14:20:36.364Z,90.30
2017-12-24T14:23:04.739Z,90.20
2017-12-24T14:25:32.299Z,90.30
2017-12-24T14:28:01.050Z,90.40
2017-12-24T14:30:29.551Z,90.50
2017-12-24T14:32:57.985Z,90.70
2017-12-24T14:35:26.499Z,90.70
2017-12-24T14:37:54.951Z,90.90
2017-12-24T14:40:24.117Z,90.90
2017-12-24T14:42:51.714Z,90.90
2017-12-24T14:45:19.250Z,90.00
2017-12-24T14:47:47.780Z,90.20
2017-12-24T14:50:16.228Z,90.50
2017-12-24T14:52:43.792Z,90.80
2017-12-24T14:55:11.316Z,90.50
2017-12-24T14:57:38.880Z,90.40
2017-12-24T15:00:08.235Z,90.40
2017-12-24T15:02:37.404Z,90.70
2017-12-24T15:05:04.937Z,90.70
2017-12-24T15:07:33.318Z,90.70
2017-12-24T15:10:01.987Z,90.80
2017-12-24T15:12:29.563Z,91.10
2017-12-24T15:14:57.868Z,91.00
2017-12-24T15:17:26.208Z,91.20
2017-12-24T15:19:54.699Z,91.10
2017-12-24T15:22:22.827Z,91.10
2017-12-24T15:24:51.135Z,90.90
2017-12-24T15:27:19.462Z,90.60
2017-12-24T15:29:46.988Z,90.60
2017-12-24T15:32:16.047Z,91.40
2017-12-24T15:34:43.578Z,91.30
2017-12-24T15:37:12.356Z,90.90
2017-12-24T15:39:41.056Z,91.50
2017-12-24T15:42:08.620Z,91.80
2017-12-24T15:44:36.896Z,92.20
2017-12-24T15:47:05.701Z,92.70
2017-12-24T15:49:33.228Z,92.70
2017-12-24T15:52:01.632Z,92.60
2017-12-24T15:54:29.170Z,91.30
2017-12-24T15:56:57.487Z,91.80
2017-12-24T15:59:25.067Z,91.80
2017-12-24T16:01:52.590Z,92.20
2017-12-24T16:04:20.163Z,92.50
2017-12-24T16:06:47.700Z,92.10
2017-12-24T16:09:15.276Z,91.90
2017-12-24T16:11:42.807Z,92.00
2017-12-24T16:14:11.135Z,91.90
2017-12-24T16:16:39.215Z,91.90
2017-12-24T16:19:07.417Z,92.40
2017-12-24T16:21:35.848Z,97.50
2017-12-24T16:24:03.415Z,96.70
2017-12-24T16:26:30.947Z,92.50
2017-12-24T16:28:59.456Z,92.20
2017-12-24T16:31:26.989Z,92.50
2017-12-24T16:33:54.562Z,92.50
2017-12-24T16:36:22.125Z,92.60
2017-12-24T16:38:49.708Z,92.10
2017-12-24T16:41:17.232Z,91.80
2017-12-24T16:43:45.611Z,91.30
2017-12-24T16:46:13.983Z,91.80
2017-12-24T16:48:41.864Z,91.90
2017-12-24T16:51:09.418Z,92.40
2017-12-24T16:53:36.980Z,93.10
2017-12-24T16:56:04.515Z,93.50
2017-12-24T16:58:32.087Z,93.90
2017-12-24T17:01:00.788Z,94.40
2017-12-24T17:03:29.046Z,94.80
2017-12-24T17:05:57.366Z,94.80
2017-12-24T17:08:25.491Z,95.00
2017-12-24T17:10:54.850Z,95.00
2017-12-24T17:13:22.440Z,95.20
2017-12-24T17:15:49.973Z,95.30
2017-12-24T17:18:18.071Z,95.20
2017-12-24T17:20:45.644Z,94.90
2017-12-24T17:23:13.951Z,93.80
2017-12-24T17:25:41.536Z,93.50
2017-12-24T17:28:10.323Z,94.00
2017-12-24T17:30:37.887Z,94.30
2017-12-24T17:33:05.418Z,93.60
2017-12-24T17:35:32.985Z,92.70
2017-12-24T17:38:02.114Z,93.10
2017-12-24T17:40:30.338Z,93.10
2017-12-24T17:42:57.871Z,93.50
2017-12-24T17:45:25.444Z,94.20
2017-12-24T17:47:52.971Z,94.20
2017-12-24T17:50:20.536Z,93.50
2017-12-24T17:52:48.082Z,93.20
2017-12-24T17:55:16.600Z,93.90
2017-12-24T17:57:44.140Z,93.20
2017-12-24T18:00:14.131Z,92.80
2017-12-24T18:02:42.426Z,92.20
2017-12-24T18:05:10.752Z,92.50
2017-12-24T18:07:39.062Z,92.50
2017-12-24T18:10:07.446Z,93.90
2017-12-24T18:12:34.985Z,94.40
2017-12-24T18:15:03.511Z,94.50
2017-12-24T18:17:32.032Z,94.80
2017-12-24T18:19:59.643Z,94.90
2017-12-24T18:22:27.220Z,95.10
2017-12-24T18:24:54.790Z,95.30
2017-12-24T18:27:23.332Z,95.10
2017-12-24T18:29:50.916Z,94.70
2017-12-24T18:32:18.443Z,94.70
2017-12-24T18:34:46.660Z,94.70
2017-12-24T18:37:15.024Z,94.20
2017-12-24T18:39:42.595Z,93.50
2017-12-24T18:42:10.142Z,93.30
2017-12-24T18:44:37.736Z,93.10
2017-12-24T18:47:05.267Z,92.70
2017-12-24T18:49:32.832Z,92.70
2017-12-24T18:52:00.372Z,93.40
2017-12-24T18:54:27.935Z,94.20
2017-12-24T18:56:55.466Z,94.70
2017-12-24T18:59:23.806Z,94.40
2017-12-24T19:01:52.598Z,94.70
2017-12-24T19:04:20.882Z,94.90
2017-12-24T19:06:48.419Z,95.00
2017-12-24T19:09:16.001Z,95.40
2017-12-24T19:11:44.303Z,95.70
2017-12-24T19:14:12.455Z,95.70
2017-12-24T19:16:40.005Z,95.70
2017-12-24T19:19:09.337Z,95.70
2017-12-24T19:21:37.559Z,95.40
2017-12-24T19:24:06.418Z,94.20
2017-12-24T19:26:33.992Z,94.10
2017-12-24T19:29:01.525Z,94.00
2017-12-24T19:31:29.139Z,94.30
2017-12-24T19:33:57.476Z,94.70
2017-12-24T19:36:25.057Z,95.10
2017-12-24T19:38:52.599Z,95.40
2017-12-24T19:41:20.944Z,95.90
2017-12-24T19:43:48.475Z,95.50
2017-12-24T19:46:16.850Z,95.60
2017-12-24T19:48:44.379Z,95.60
2017-12-24T19:51:11.947Z,94.10
2017-12-24T19:53:39.482Z,93.80
2017-12-24T19:56:08.551Z,93.30
2017-12-24T19:58:36.135Z,93.30
2017-12-24T20:01:03.761Z,92.90
2017-12-24T20:03:31.349Z,92.30
2017-12-24T20:05:59.824Z,92.80
2017-12-24T20:08:27.359Z,92.90
2017-12-24T20:10:54.924Z,92.90
2017-12-24T20:13:23.327Z,93.00
2017-12-24T20:15:50.941Z,92.80
2017-12-24T20:18:18.499Z,92.80
2017-12-24T20:20:47.839Z,92.70
2017-12-24T20:23:15.674Z,92.20
2017-12-24T20:25:44.062Z,91.70
2017-12-24T20:28:12.460Z,91.70
2017-12-24T20:30:40.069Z,91.70
2017-12-24T20:33:07.642Z,92.40
2017-12-24T20:35:36.177Z,93.30
2017-12-24T20:38:04.589Z,93.40
2017-12-24T20:40:34.629Z,93.90
2017-12-24T20:43:03.837Z,93.80
2017-12-24T20:45:31.471Z,93.80
2017-12-24T20:48:00.006Z,93.90
2017-12-24T20:50:29.103Z,94.30
2017-12-24T20:52:57.502Z,93.90
2017-12-24T20:55:26.101Z,93.90
2017-12-24T20:57:54.488Z,93.30
2017-12-24T21:00:22.062Z,93.20
2017-12-24T21:02:49.648Z,93.10
2017-12-24T21:05:17.988Z,92.50
2017-12-24T21:07:45.644Z,92.50
2017-12-24T21:10:13.218Z,92.80
2017-12-24T21:12:40.847Z,93.10
2017-12-24T21:15:08.435Z,93.00
2017-12-24T21:17:36.814Z,93.40
2017-12-24T21:20:04.348Z,93.40
2017-12-24T21:22:31.940Z,93.20
2017-12-24T21:24:59.472Z,93.00
2017-12-24T21:27:27.095Z,92.70
2017-12-24T21:29:54.668Z,92.40
2017-12-24T21:32:22.240Z,92.30
2017-12-24T21:34:50.672Z,92.40
2017-12-24T21:37:18.285Z,92.00
2017-12-24T21:39:46.670Z,92.20
2017-12-24T21:42:14.295Z,92.10
2017-12-24T21:44:42.634Z,92.60
2017-12-24T21:47:10.932Z,92.60
2017-12-24T21:49:38.552Z,92.40
2017-12-24T21:52:06.841Z,92.10
2017-12-24T21:54:35.171Z,92.20
2017-12-24T21:57:03.946Z,92.20
2017-12-24T21:59:32.507Z,92.40
2017-12-24T22:02:00.947Z,92.60
2017-12-24T22:04:28.511Z,92.80
2017-12-24T22:06:56.871Z,92.60
2017-12-24T22:09:25.395Z,93.00
2017-12-24T22:11:52.972Z,93.50
2017-12-24T22:14:20.578Z,92.70
2017-12-24T22:16:48.162Z,92.70
2017-12-24T22:19:15.747Z,92.40
2017-12-24T22:21:43.322Z,92.40
2017-12-24T22:24:10.939Z,92.40
2017-12-24T22:26:38.508Z,92.20
2017-12-24T22:29:06.075Z,92.50
2017-12-24T22:31:33.654Z,92.30
2017-12-24T22:34:01.280Z,92.30
2017-12-24T22:36:29.667Z,92.30
2017-12-24T22:38:58.175Z,92.20
2017-12-24T22:41:26.550Z,92.50
2017-12-24T22:43:54.129Z,92.50
2017-12-24T22:46:22.402Z,92.40
2017-12-24T22:48:50.008Z,92.40
2017-12-24T22:51:19.627Z,92.70
2017-12-24T22:53:48.027Z,92.70
2017-12-24T22:56:16.364Z,92.70
2017-12-24T22:58:43.946Z,92.30
2017-12-24T23:01:11.587Z,92.40
2017-12-24T23:03:40.347Z,92.50
2017-12-24T23:06:07.966Z,92.50
2017-12-24T23:08:35.494Z,92.40
2017-12-24T23:11:03.654Z,92.20
2017-12-24T23:13:32.185Z,92.10
2017-12-24T23:16:00.524Z,92.00
2017-12-24T23:18:28.840Z,92.20
2017-12-24T23:20:56.472Z,92.40
2017-12-24T23:23:25.139Z,92.90
2017-12-24T23:25:53.539Z,92.80
2017-12-24T23:28:23.065Z,92.80
2017-12-24T23:30:51.400Z,92.60
2017-12-24T23:33:19.903Z,92.60
2017-12-24T23:35:48.429Z,92.60
2017-12-24T23:38:16.033Z,92.60
2017-12-24T23:40:43.633Z,92.60
2017-12-24T23:43:12.221Z,92.70
2017-12-24T23:45:39.841Z,92.90
2017-12-24T23:48:07.448Z,93.10
2017-12-24T23:50:35.796Z,93.20
2017-12-24T23:53:03.327Z,93.20
2017-12-24T23:55:31.609Z,93.20
2017-12-24T23:58:00.004Z,92.90
